sensor_id;sensor_type;location;lat;lon;timestamp;temperature;humidity
46730;DHT22;32476;50.002;11.854;2023-03-29T00:01:31;0.60;99.90
46730;DHT22;32476;50.002;11.854;2023-03-29T00:03:57;0.60;99.90
46730;DHT22;32476;50.002;11.854;2023-03-29T00:06:26;0.70;99.90
46730;DHT22;32476;50.002;11.854;2023-03-29T00:08:58;0.60;99.90
46730;DHT22;32476;50.002;11.854;2023-03-29T00:11:26;0.60;99.90
46730;DHT22;32476;50.002;11.854;2023-03-29T00:13:52;0.60;99.90
46730;DHT22;32476;50.002;11.854;2023-03-29T00:16:18;0.60;99.90
46730;DHT22;32476;50.002;11.854;2023-03-29T00:18:46;0.60;99.90
46730;DHT22;32476;50.002;11.854;2023-03-29T00:21:12;0.50;99.90
46730;DHT22;32476;50.002;11.854;2023-03-29T00:23:37;0.50;99.90
46730;DHT22;32476;50.002;11.854;2023-03-29T00:26:05;0.50;99.90
46730;DHT22;32476;50.002;11.854;2023-03-29T00:28:31;0.50;99.90
46730;DHT22;32476;50.002;11.854;2023-03-29T00:31:12;0.50;99.90
46730;DHT22;32476;50.002;11.854;2023-03-29T00:33:40;0.50;99.90
46730;DHT22;32476;50.002;11.854;2023-03-29T00:36:07;0.60;99.90
46730;DHT22;32476;50.002;11.854;2023-03-29T00:38:34;0.70;99.90
46730;DHT22;32476;50.002;11.854;2023-03-29T00:41:02;0.80;99.90
46730;DHT22;32476;50.002;11.854;2023-03-29T00:43:29;0.80;99.90
46730;DHT22;32476;50.002;11.854;2023-03-29T00:45:54;0.90;99.90
46730;DHT22;32476;50.002;11.854;2023-03-29T00:48:25;1.00;99.90
46730;DHT22;32476;50.002;11.854;2023-03-29T00:51:04;1.10;99.90
46730;DHT22;32476;50.002;11.854;2023-03-29T00:53:53;1.20;99.90
46730;DHT22;32476;50.002;11.854;2023-03-29T00:56:30;1.20;99.90
46730;DHT22;32476;50.002;11.854;2023-03-29T00:59:08;1.20;99.90
46730;DHT22;32476;50.002;11.854;2023-03-29T01:01:43;1.20;99.90
46730;DHT22;32476;50.002;11.854;2023-03-29T01:04:16;1.20;99.90
46730;DHT22;32476;50.002;11.854;2023-03-29T01:06:53;1.10;99.90
46730;DHT22;32476;50.002;11.854;2023-03-29T01:09:24;1.10;99.90
46730;DHT22;32476;50.002;11.854;2023-03-29T01:11:56;1.10;99.90
46730;DHT22;32476;50.002;11.854;2023-03-29T01:14:32;0.90;99.90
46730;DHT22;32476;50.002;11.854;2023-03-29T01:16:59;0.80;99.90
46730;DHT22;32476;50.002;11.854;2023-03-29T01:19:32;0.70;99.90
46730;DHT22;32476;50.002;11.854;2023-03-29T01:25:14;0.50;99.90
46730;DHT22;32476;50.002;11.854;2023-03-29T01:28:01;0.50;99.90
46730;DHT22;32476;50.002;11.854;2023-03-29T01:30:49;0.40;99.90
46730;DHT22;32476;50.002;11.854;2023-03-29T01:33:19;0.30;99.90
46730;DHT22;32476;50.002;11.854;2023-03-29T01:35:56;0.30;99.90
46730;DHT22;32476;50.002;11.854;2023-03-29T01:38:35;0.10;99.90
46730;DHT22;32476;50.002;11.854;2023-03-29T01:41:05;0.10;99.90
46730;DHT22;32476;50.002;11.854;2023-03-29T01:43:35;0.00;99.90
46730;DHT22;32476;50.002;11.854;2023-03-29T01:46:44;0.00;99.90
46730;DHT22;32476;50.002;11.854;2023-03-29T01:49:20;0.00;99.90
46730;DHT22;32476;50.002;11.854;2023-03-29T01:51:56;-0.10;99.90
46730;DHT22;32476;50.002;11.854;2023-03-29T01:56:54;-0.20;99.90
46730;DHT22;32476;50.002;11.854;2023-03-29T01:59:26;-0.20;99.90
46730;DHT22;32476;50.002;11.854;2023-03-29T02:01:58;-0.20;99.90
46730;DHT22;32476;50.002;11.854;2023-03-29T02:04:28;-0.20;99.90
46730;DHT22;32476;50.002;11.854;2023-03-29T02:06:58;-0.20;99.90
46730;DHT22;32476;50.002;11.854;2023-03-29T02:09:26;-0.20;99.90
46730;DHT22;32476;50.002;11.854;2023-03-29T02:11:56;-0.20;99.90
46730;DHT22;32476;50.002;11.854;2023-03-29T02:14:25;-0.20;99.90
46730;DHT22;32476;50.002;11.854;2023-03-29T02:16:52;-0.20;99.90
46730;DHT22;32476;50.002;11.854;2023-03-29T02:19:19;-0.20;99.90
46730;DHT22;32476;50.002;11.854;2023-03-29T02:22:03;-0.10;99.90
46730;DHT22;32476;50.002;11.854;2023-03-29T02:24:32;-0.20;99.90
46730;DHT22;32476;50.002;11.854;2023-03-29T02:27:03;-0.20;99.90
46730;DHT22;32476;50.002;11.854;2023-03-29T02:29:29;-0.20;99.90
46730;DHT22;32476;50.002;11.854;2023-03-29T02:34:36;-0.30;99.90
46730;DHT22;32476;50.002;11.854;2023-03-29T02:37:08;-0.30;99.90
46730;DHT22;32476;50.002;11.854;2023-03-29T02:39:38;-0.30;99.90
46730;DHT22;32476;50.002;11.854;2023-03-29T02:42:05;-0.30;99.90
46730;DHT22;32476;50.002;11.854;2023-03-29T02:44:36;-0.30;99.90
46730;DHT22;32476;50.002;11.854;2023-03-29T02:47:09;-0.30;99.90
46730;DHT22;32476;50.002;11.854;2023-03-29T02:49:38;-0.30;99.90
46730;DHT22;32476;50.002;11.854;2023-03-29T02:52:09;-0.30;99.90
46730;DHT22;32476;50.002;11.854;2023-03-29T02:54:37;-0.30;99.90
46730;DHT22;32476;50.002;11.854;2023-03-29T02:57:09;-0.30;99.90
46730;DHT22;32476;50.002;11.854;2023-03-29T02:59:36;-0.30;99.90
46730;DHT22;32476;50.002;11.854;2023-03-29T03:02:03;-0.20;99.90
46730;DHT22;32476;50.002;11.854;2023-03-29T03:04:32;-0.30;99.90
46730;DHT22;32476;50.002;11.854;2023-03-29T03:07:00;-0.30;99.90
46730;DHT22;32476;50.002;11.854;2023-03-29T03:09:26;-0.30;99.90
46730;DHT22;32476;50.002;11.854;2023-03-29T03:11:54;-0.30;99.90
46730;DHT22;32476;50.002;11.854;2023-03-29T03:14:20;-0.30;99.90
46730;DHT22;32476;50.002;11.854;2023-03-29T03:16:48;-0.30;99.90
46730;DHT22;32476;50.002;11.854;2023-03-29T03:19:15;-0.30;99.90
46730;DHT22;32476;50.002;11.854;2023-03-29T03:21:41;-0.30;99.90
46730;DHT22;32476;50.002;11.854;2023-03-29T03:24:07;-0.30;99.90
46730;DHT22;32476;50.002;11.854;2023-03-29T03:26:34;-0.30;99.90
46730;DHT22;32476;50.002;11.854;2023-03-29T03:29:00;-0.30;99.90
46730;DHT22;32476;50.002;11.854;2023-03-29T03:31:26;-0.30;99.90
46730;DHT22;32476;50.002;11.854;2023-03-29T03:33:54;-0.30;99.90
46730;DHT22;32476;50.002;11.854;2023-03-29T03:36:20;-0.30;99.90
46730;DHT22;32476;50.002;11.854;2023-03-29T03:38:51;-0.20;99.90
46730;DHT22;32476;50.002;11.854;2023-03-29T03:41:19;-0.20;99.90
46730;DHT22;32476;50.002;11.854;2023-03-29T03:43:44;-0.20;99.90
46730;DHT22;32476;50.002;11.854;2023-03-29T03:46:16;-0.20;99.90
46730;DHT22;32476;50.002;11.854;2023-03-29T03:48:45;-0.20;99.90
46730;DHT22;32476;50.002;11.854;2023-03-29T03:51:11;-0.30;99.90
46730;DHT22;32476;50.002;11.854;2023-03-29T03:53:37;-0.30;99.90
46730;DHT22;32476;50.002;11.854;2023-03-29T03:56:05;-0.20;99.90
46730;DHT22;32476;50.002;11.854;2023-03-29T03:58:34;-0.30;99.90
46730;DHT22;32476;50.002;11.854;2023-03-29T04:01:01;-0.30;99.90
46730;DHT22;32476;50.002;11.854;2023-03-29T04:03:29;-0.30;99.90
46730;DHT22;32476;50.002;11.854;2023-03-29T04:05:59;-0.20;99.90
46730;DHT22;32476;50.002;11.854;2023-03-29T04:08:25;-0.20;99.90
46730;DHT22;32476;50.002;11.854;2023-03-29T04:10:54;-0.20;99.90
46730;DHT22;32476;50.002;11.854;2023-03-29T04:13:21;-0.30;99.90
46730;DHT22;32476;50.002;11.854;2023-03-29T04:15:48;-0.20;99.90
46730;DHT22;32476;50.002;11.854;2023-03-29T04:18:23;-0.30;99.90
46730;DHT22;32476;50.002;11.854;2023-03-29T04:20:49;-0.30;99.90
46730;DHT22;32476;50.002;11.854;2023-03-29T04:23:15;-0.20;99.90
46730;DHT22;32476;50.002;11.854;2023-03-29T04:25:43;-0.20;99.90
46730;DHT22;32476;50.002;11.854;2023-03-29T04:28:10;-0.20;99.90
46730;DHT22;32476;50.002;11.854;2023-03-29T04:30:36;-0.20;99.90
46730;DHT22;32476;50.002;11.854;2023-03-29T04:33:03;-0.20;99.90
46730;DHT22;32476;50.002;11.854;2023-03-29T04:35:29;-0.20;99.90
46730;DHT22;32476;50.002;11.854;2023-03-29T04:37:55;-0.20;99.90
46730;DHT22;32476;50.002;11.854;2023-03-29T04:40:23;-0.30;99.90
46730;DHT22;32476;50.002;11.854;2023-03-29T04:42:49;-0.20;99.90
46730;DHT22;32476;50.002;11.854;2023-03-29T04:45:16;-0.30;99.90
46730;DHT22;32476;50.002;11.854;2023-03-29T04:47:44;-0.20;99.90
46730;DHT22;32476;50.002;11.854;2023-03-29T04:50:11;-0.30;99.90
46730;DHT22;32476;50.002;11.854;2023-03-29T04:52:38;-0.30;99.90
46730;DHT22;32476;50.002;11.854;2023-03-29T04:55:06;-0.30;99.90
46730;DHT22;32476;50.002;11.854;2023-03-29T04:57:32;-0.30;99.90
46730;DHT22;32476;50.002;11.854;2023-03-29T04:59:58;-0.30;99.90
46730;DHT22;32476;50.002;11.854;2023-03-29T05:02:26;-0.20;99.90
46730;DHT22;32476;50.002;11.854;2023-03-29T05:04:52;-0.20;99.90
46730;DHT22;32476;50.002;11.854;2023-03-29T05:07:17;-0.20;99.90
46730;DHT22;32476;50.002;11.854;2023-03-29T05:09:45;-0.20;99.90
46730;DHT22;32476;50.002;11.854;2023-03-29T05:12:12;-0.20;99.90
46730;DHT22;32476;50.002;11.854;2023-03-29T05:14:38;-0.30;99.90
46730;DHT22;32476;50.002;11.854;2023-03-29T05:17:05;-0.30;99.90
46730;DHT22;32476;50.002;11.854;2023-03-29T05:19:32;-0.20;99.90
46730;DHT22;32476;50.002;11.854;2023-03-29T05:21:58;-0.20;99.90
46730;DHT22;32476;50.002;11.854;2023-03-29T05:24:26;-0.20;99.90
46730;DHT22;32476;50.002;11.854;2023-03-29T05:26:51;-0.20;99.90
46730;DHT22;32476;50.002;11.854;2023-03-29T05:29:17;-0.20;99.90
46730;DHT22;32476;50.002;11.854;2023-03-29T05:31:45;-0.10;99.90
46730;DHT22;32476;50.002;11.854;2023-03-29T05:34:11;-0.20;99.90
46730;DHT22;32476;50.002;11.854;2023-03-29T05:36:37;-0.20;99.90
46730;DHT22;32476;50.002;11.854;2023-03-29T05:39:05;-0.10;99.90
46730;DHT22;32476;50.002;11.854;2023-03-29T05:41:31;-0.20;99.90
46730;DHT22;32476;50.002;11.854;2023-03-29T05:43:58;-0.10;99.90
46730;DHT22;32476;50.002;11.854;2023-03-29T05:46:25;-0.10;99.90
46730;DHT22;32476;50.002;11.854;2023-03-29T05:48:51;-0.10;99.90
46730;DHT22;32476;50.002;11.854;2023-03-29T05:51:17;-0.10;99.90
46730;DHT22;32476;50.002;11.854;2023-03-29T05:53:45;-0.10;99.90
46730;DHT22;32476;50.002;11.854;2023-03-29T05:56:11;-0.10;99.90
46730;DHT22;32476;50.002;11.854;2023-03-29T05:58:40;0.00;99.90
46730;DHT22;32476;50.002;11.854;2023-03-29T06:01:12;0.00;99.90
46730;DHT22;32476;50.002;11.854;2023-03-29T06:03:39;0.00;99.90
46730;DHT22;32476;50.002;11.854;2023-03-29T06:06:05;0.10;99.90
46730;DHT22;32476;50.002;11.854;2023-03-29T06:08:33;0.10;99.90
46730;DHT22;32476;50.002;11.854;2023-03-29T06:11:01;0.10;99.90
46730;DHT22;32476;50.002;11.854;2023-03-29T06:13:28;0.20;99.90
46730;DHT22;32476;50.002;11.854;2023-03-29T06:15:56;0.20;99.90
46730;DHT22;32476;50.002;11.854;2023-03-29T06:18:22;0.20;99.90
46730;DHT22;32476;50.002;11.854;2023-03-29T06:20:52;0.20;99.90
46730;DHT22;32476;50.002;11.854;2023-03-29T06:23:20;0.30;99.90
46730;DHT22;32476;50.002;11.854;2023-03-29T06:25:47;0.30;99.90
46730;DHT22;32476;50.002;11.854;2023-03-29T06:28:13;0.40;99.90
46730;DHT22;32476;50.002;11.854;2023-03-29T06:30:43;0.40;99.90
46730;DHT22;32476;50.002;11.854;2023-03-29T06:33:11;0.40;99.90
46730;DHT22;32476;50.002;11.854;2023-03-29T06:35:41;0.50;99.90
46730;DHT22;32476;50.002;11.854;2023-03-29T06:38:09;0.50;99.90
46730;DHT22;32476;50.002;11.854;2023-03-29T06:40:35;0.50;99.90
46730;DHT22;32476;50.002;11.854;2023-03-29T06:43:05;0.50;99.90
46730;DHT22;32476;50.002;11.854;2023-03-29T06:45:34;0.60;99.90
46730;DHT22;32476;50.002;11.854;2023-03-29T06:48:01;0.60;99.90
46730;DHT22;32476;50.002;11.854;2023-03-29T06:50:28;0.70;99.90
46730;DHT22;32476;50.002;11.854;2023-03-29T06:52:55;0.70;99.90
46730;DHT22;32476;50.002;11.854;2023-03-29T06:55:22;0.80;99.90
46730;DHT22;32476;50.002;11.854;2023-03-29T06:57:48;0.80;99.90
46730;DHT22;32476;50.002;11.854;2023-03-29T07:00:16;0.80;99.90
46730;DHT22;32476;50.002;11.854;2023-03-29T07:02:47;0.80;99.90
46730;DHT22;32476;50.002;11.854;2023-03-29T07:05:14;0.90;99.90
46730;DHT22;32476;50.002;11.854;2023-03-29T07:07:43;1.00;99.90
46730;DHT22;32476;50.002;11.854;2023-03-29T07:10:30;1.00;99.90
46730;DHT22;32476;50.002;11.854;2023-03-29T07:13:01;1.00;99.90
46730;DHT22;32476;50.002;11.854;2023-03-29T07:15:28;1.10;99.90
46730;DHT22;32476;50.002;11.854;2023-03-29T07:17:54;1.10;99.90
46730;DHT22;32476;50.002;11.854;2023-03-29T07:20:22;1.20;99.90
46730;DHT22;32476;50.002;11.854;2023-03-29T07:22:49;1.20;99.90
46730;DHT22;32476;50.002;11.854;2023-03-29T07:25:17;1.30;99.90
46730;DHT22;32476;50.002;11.854;2023-03-29T07:27:45;1.30;99.90
46730;DHT22;32476;50.002;11.854;2023-03-29T07:30:13;1.30;99.90
46730;DHT22;32476;50.002;11.854;2023-03-29T07:32:42;1.40;99.90
46730;DHT22;32476;50.002;11.854;2023-03-29T07:35:11;1.40;99.90
46730;DHT22;32476;50.002;11.854;2023-03-29T07:37:38;1.40;99.90
46730;DHT22;32476;50.002;11.854;2023-03-29T07:40:09;1.50;99.90
46730;DHT22;32476;50.002;11.854;2023-03-29T07:42:39;1.60;99.90
46730;DHT22;32476;50.002;11.854;2023-03-29T07:45:05;1.60;99.90
46730;DHT22;32476;50.002;11.854;2023-03-29T07:47:33;1.30;99.90
46730;DHT22;32476;50.002;11.854;2023-03-29T07:50:01;1.30;99.90
46730;DHT22;32476;50.002;11.854;2023-03-29T07:52:28;1.40;99.90
46730;DHT22;32476;50.002;11.854;2023-03-29T07:54:58;1.40;99.90
46730;DHT22;32476;50.002;11.854;2023-03-29T07:57:26;1.50;99.90
46730;DHT22;32476;50.002;11.854;2023-03-29T07:59:53;1.60;99.90
46730;DHT22;32476;50.002;11.854;2023-03-29T08:02:20;1.70;99.90
46730;DHT22;32476;50.002;11.854;2023-03-29T08:04:48;1.70;99.90
46730;DHT22;32476;50.002;11.854;2023-03-29T08:07:16;1.90;99.90
46730;DHT22;32476;50.002;11.854;2023-03-29T08:09:44;2.00;99.90
46730;DHT22;32476;50.002;11.854;2023-03-29T08:12:12;2.10;99.90
46730;DHT22;32476;50.002;11.854;2023-03-29T08:14:37;2.20;99.90
46730;DHT22;32476;50.002;11.854;2023-03-29T08:17:03;2.30;99.90
46730;DHT22;32476;50.002;11.854;2023-03-29T08:19:31;2.30;99.90
46730;DHT22;32476;50.002;11.854;2023-03-29T08:21:57;2.40;99.90
46730;DHT22;32476;50.002;11.854;2023-03-29T08:24:23;2.40;99.90
46730;DHT22;32476;50.002;11.854;2023-03-29T08:26:51;2.40;99.90
46730;DHT22;32476;50.002;11.854;2023-03-29T08:29:17;2.40;99.90
46730;DHT22;32476;50.002;11.854;2023-03-29T08:31:42;2.50;99.90
46730;DHT22;32476;50.002;11.854;2023-03-29T08:34:10;2.60;99.90
46730;DHT22;32476;50.002;11.854;2023-03-29T08:36:35;2.60;99.90
46730;DHT22;32476;50.002;11.854;2023-03-29T08:39:01;2.80;99.90
46730;DHT22;32476;50.002;11.854;2023-03-29T08:49:57;3.20;99.90
46730;DHT22;32476;50.002;11.854;2023-03-29T08:52:33;3.10;99.90
46730;DHT22;32476;50.002;11.854;2023-03-29T08:55:01;3.20;99.90
46730;DHT22;32476;50.002;11.854;2023-03-29T08:57:37;3.20;99.90
46730;DHT22;32476;50.002;11.854;2023-03-29T09:00:06;3.20;99.90
46730;DHT22;32476;50.002;11.854;2023-03-29T09:02:37;3.40;99.90
46730;DHT22;32476;50.002;11.854;2023-03-29T09:05:13;3.60;99.90
46730;DHT22;32476;50.002;11.854;2023-03-29T09:07:44;3.50;99.90
46730;DHT22;32476;50.002;11.854;2023-03-29T09:10:17;3.50;99.90
46730;DHT22;32476;50.002;11.854;2023-03-29T09:13:09;3.60;99.90
46730;DHT22;32476;50.002;11.854;2023-03-29T09:18:40;3.90;99.90
46730;DHT22;32476;50.002;11.854;2023-03-29T09:21:13;3.90;99.90
46730;DHT22;32476;50.002;11.854;2023-03-29T09:29:14;4.10;99.90
46730;DHT22;32476;50.002;11.854;2023-03-29T09:31:43;4.10;99.90
46730;DHT22;32476;50.002;11.854;2023-03-29T09:37:21;4.40;99.90
46730;DHT22;32476;50.002;11.854;2023-03-29T09:39:49;4.40;99.90
46730;DHT22;32476;50.002;11.854;2023-03-29T09:42:18;4.60;99.90
46730;DHT22;32476;50.002;11.854;2023-03-29T09:44:51;4.80;99.90
46730;DHT22;32476;50.002;11.854;2023-03-29T09:47:28;5.00;99.90
46730;DHT22;32476;50.002;11.854;2023-03-29T09:50:02;4.90;99.90
46730;DHT22;32476;50.002;11.854;2023-03-29T09:52:30;5.00;99.90
46730;DHT22;32476;50.002;11.854;2023-03-29T09:54:57;5.10;99.90
46730;DHT22;32476;50.002;11.854;2023-03-29T09:57:24;5.30;99.90
46730;DHT22;32476;50.002;11.854;2023-03-29T09:59:52;5.00;99.90
46730;DHT22;32476;50.002;11.854;2023-03-29T10:02:19;5.00;99.90
46730;DHT22;32476;50.002;11.854;2023-03-29T10:04:51;5.10;99.90
46730;DHT22;32476;50.002;11.854;2023-03-29T10:07:21;5.10;99.90
46730;DHT22;32476;50.002;11.854;2023-03-29T10:09:48;5.20;99.90
46730;DHT22;32476;50.002;11.854;2023-03-29T10:12:16;5.20;99.90
46730;DHT22;32476;50.002;11.854;2023-03-29T10:14:46;5.20;99.90
46730;DHT22;32476;50.002;11.854;2023-03-29T10:17:22;5.20;99.90
46730;DHT22;32476;50.002;11.854;2023-03-29T10:19:52;5.50;99.90
46730;DHT22;32476;50.002;11.854;2023-03-29T10:22:26;5.60;99.90
46730;DHT22;32476;50.002;11.854;2023-03-29T10:24:55;5.80;99.90
46730;DHT22;32476;50.002;11.854;2023-03-29T10:27:28;5.90;99.90
46730;DHT22;32476;50.002;11.854;2023-03-29T10:30:10;6.00;99.90
46730;DHT22;32476;50.002;11.854;2023-03-29T10:32:39;6.00;99.90
46730;DHT22;32476;50.002;11.854;2023-03-29T10:35:28;5.90;99.90
46730;DHT22;32476;50.002;11.854;2023-03-29T10:37:56;6.00;99.90
46730;DHT22;32476;50.002;11.854;2023-03-29T10:40:29;6.10;99.90
46730;DHT22;32476;50.002;11.854;2023-03-29T10:43:09;6.20;99.90
46730;DHT22;32476;50.002;11.854;2023-03-29T10:45:38;6.30;99.90
46730;DHT22;32476;50.002;11.854;2023-03-29T10:48:10;6.30;99.90
46730;DHT22;32476;50.002;11.854;2023-03-29T10:50:38;6.50;99.90
46730;DHT22;32476;50.002;11.854;2023-03-29T10:53:26;6.70;99.90
46730;DHT22;32476;50.002;11.854;2023-03-29T10:58:55;7.00;99.90
46730;DHT22;32476;50.002;11.854;2023-03-29T11:01:33;7.20;99.90
46730;DHT22;32476;50.002;11.854;2023-03-29T11:06:39;7.40;99.90
46730;DHT22;32476;50.002;11.854;2023-03-29T11:09:37;7.70;99.90
46730;DHT22;32476;50.002;11.854;2023-03-29T11:12:21;7.60;99.90
46730;DHT22;32476;50.002;11.854;2023-03-29T11:15:03;7.30;99.90
46730;DHT22;32476;50.002;11.854;2023-03-29T11:20:37;7.60;99.90
46730;DHT22;32476;50.002;11.854;2023-03-29T11:26:30;7.80;99.90
46730;DHT22;32476;50.002;11.854;2023-03-29T11:29:22;8.20;99.90
46730;DHT22;32476;50.002;11.854;2023-03-29T11:42:33;8.60;99.90
46730;DHT22;32476;50.002;11.854;2023-03-29T11:45:03;8.40;99.90
46730;DHT22;32476;50.002;11.854;2023-03-29T11:47:32;8.50;99.90
46730;DHT22;32476;50.002;11.854;2023-03-29T11:50:08;8.40;99.90
46730;DHT22;32476;50.002;11.854;2023-03-29T11:52:43;8.40;99.90
46730;DHT22;32476;50.002;11.854;2023-03-29T11:55:22;8.50;99.90
46730;DHT22;32476;50.002;11.854;2023-03-29T11:57:54;8.30;99.90
46730;DHT22;32476;50.002;11.854;2023-03-29T12:00:34;8.30;99.90
46730;DHT22;32476;50.002;11.854;2023-03-29T12:06:30;8.30;99.90
46730;DHT22;32476;50.002;11.854;2023-03-29T12:08:59;8.20;99.90
46730;DHT22;32476;50.002;11.854;2023-03-29T12:11:37;8.30;99.90
46730;DHT22;32476;50.002;11.854;2023-03-29T12:14:14;8.30;99.90
46730;DHT22;32476;50.002;11.854;2023-03-29T12:16:54;8.60;99.90
46730;DHT22;32476;50.002;11.854;2023-03-29T12:19:25;8.90;99.90
46730;DHT22;32476;50.002;11.854;2023-03-29T12:21:57;9.00;99.90
46730;DHT22;32476;50.002;11.854;2023-03-29T12:24:28;8.80;99.90
46730;DHT22;32476;50.002;11.854;2023-03-29T12:27:21;9.10;99.90
46730;DHT22;32476;50.002;11.854;2023-03-29T12:36:19;9.40;99.90
46730;DHT22;32476;50.002;11.854;2023-03-29T12:38:55;9.30;99.90
46730;DHT22;32476;50.002;11.854;2023-03-29T12:41:22;9.20;99.90
46730;DHT22;32476;50.002;11.854;2023-03-29T12:43:49;9.30;99.90
46730;DHT22;32476;50.002;11.854;2023-03-29T12:48:46;9.30;99.90
46730;DHT22;32476;50.002;11.854;2023-03-29T12:51:21;9.20;99.90
46730;DHT22;32476;50.002;11.854;2023-03-29T12:53:52;9.30;99.90
46730;DHT22;32476;50.002;11.854;2023-03-29T12:56:22;9.40;99.90
46730;DHT22;32476;50.002;11.854;2023-03-29T12:59:15;9.80;99.90
46730;DHT22;32476;50.002;11.854;2023-03-29T13:02:00;9.80;99.90
46730;DHT22;32476;50.002;11.854;2023-03-29T13:04:37;9.90;99.90
46730;DHT22;32476;50.002;11.854;2023-03-29T13:07:03;10.00;99.90
46730;DHT22;32476;50.002;11.854;2023-03-29T13:09:54;10.00;99.90
46730;DHT22;32476;50.002;11.854;2023-03-29T13:12:23;9.60;99.90
46730;DHT22;32476;50.002;11.854;2023-03-29T13:14:53;9.40;99.90
46730;DHT22;32476;50.002;11.854;2023-03-29T13:17:37;9.60;99.90
46730;DHT22;32476;50.002;11.854;2023-03-29T13:22:54;9.70;99.90
46730;DHT22;32476;50.002;11.854;2023-03-29T13:36:05;9.20;99.90
46730;DHT22;32476;50.002;11.854;2023-03-29T13:38:52;9.20;99.90
46730;DHT22;32476;50.002;11.854;2023-03-29T13:41:47;9.40;99.90
46730;DHT22;32476;50.002;11.854;2023-03-29T13:47:04;9.50;99.90
46730;DHT22;32476;50.002;11.854;2023-03-29T13:49:32;9.50;99.90
46730;DHT22;32476;50.002;11.854;2023-03-29T13:52:14;9.70;99.90
46730;DHT22;32476;50.002;11.854;2023-03-29T13:54:51;9.70;99.90
46730;DHT22;32476;50.002;11.854;2023-03-29T13:57:50;9.70;99.90
46730;DHT22;32476;50.002;11.854;2023-03-29T14:00:21;9.60;99.90
46730;DHT22;32476;50.002;11.854;2023-03-29T14:02:57;9.60;99.90
46730;DHT22;32476;50.002;11.854;2023-03-29T14:05:31;9.70;99.90
46730;DHT22;32476;50.002;11.854;2023-03-29T14:08:26;10.00;99.90
46730;DHT22;32476;50.002;11.854;2023-03-29T14:10:52;10.00;99.90
46730;DHT22;32476;50.002;11.854;2023-03-29T14:13:22;9.80;99.90
46730;DHT22;32476;50.002;11.854;2023-03-29T14:15:55;9.70;99.90
46730;DHT22;32476;50.002;11.854;2023-03-29T14:18:27;9.50;99.90
46730;DHT22;32476;50.002;11.854;2023-03-29T14:20:58;9.40;99.90
46730;DHT22;32476;50.002;11.854;2023-03-29T14:23:31;9.50;99.90
46730;DHT22;32476;50.002;11.854;2023-03-29T14:26:11;9.50;99.90
46730;DHT22;32476;50.002;11.854;2023-03-29T14:28:51;9.80;99.90
46730;DHT22;32476;50.002;11.854;2023-03-29T14:31:25;9.80;99.90
46730;DHT22;32476;50.002;11.854;2023-03-29T14:33:55;9.80;99.90
46730;DHT22;32476;50.002;11.854;2023-03-29T14:36:22;9.90;99.90
46730;DHT22;32476;50.002;11.854;2023-03-29T14:38:56;10.00;99.90
46730;DHT22;32476;50.002;11.854;2023-03-29T14:41:30;10.10;99.90
46730;DHT22;32476;50.002;11.854;2023-03-29T14:43:57;9.90;99.90
46730;DHT22;32476;50.002;11.854;2023-03-29T14:46:23;10.00;99.90
46730;DHT22;32476;50.002;11.854;2023-03-29T14:48:52;9.90;99.90
46730;DHT22;32476;50.002;11.854;2023-03-29T14:51:18;9.90;99.90
46730;DHT22;32476;50.002;11.854;2023-03-29T14:53:45;9.90;99.90
46730;DHT22;32476;50.002;11.854;2023-03-29T14:56:15;9.90;99.90
46730;DHT22;32476;50.002;11.854;2023-03-29T14:58:46;9.90;99.90
46730;DHT22;32476;50.002;11.854;2023-03-29T15:01:17;9.90;99.90
46730;DHT22;32476;50.002;11.854;2023-03-29T15:03:54;9.90;99.90
46730;DHT22;32476;50.002;11.854;2023-03-29T15:06:24;9.80;99.90
46730;DHT22;32476;50.002;11.854;2023-03-29T15:08:52;9.80;99.90
46730;DHT22;32476;50.002;11.854;2023-03-29T15:11:27;9.80;99.90
46730;DHT22;32476;50.002;11.854;2023-03-29T15:14:01;9.60;99.90
46730;DHT22;32476;50.002;11.854;2023-03-29T15:16:28;9.60;99.90
46730;DHT22;32476;50.002;11.854;2023-03-29T15:18:56;9.60;99.90
46730;DHT22;32476;50.002;11.854;2023-03-29T15:21:25;9.50;99.90
46730;DHT22;32476;50.002;11.854;2023-03-29T15:23:55;9.50;99.90
46730;DHT22;32476;50.002;11.854;2023-03-29T15:29:11;9.40;99.90
46730;DHT22;32476;50.002;11.854;2023-03-29T15:31:40;9.40;99.90
46730;DHT22;32476;50.002;11.854;2023-03-29T15:34:11;9.40;99.90
46730;DHT22;32476;50.002;11.854;2023-03-29T15:36:43;9.30;99.90
46730;DHT22;32476;50.002;11.854;2023-03-29T15:39:11;9.30;99.90
46730;DHT22;32476;50.002;11.854;2023-03-29T15:41:40;9.30;99.90
46730;DHT22;32476;50.002;11.854;2023-03-29T15:44:06;9.40;99.90
46730;DHT22;32476;50.002;11.854;2023-03-29T15:46:32;9.50;99.90
46730;DHT22;32476;50.002;11.854;2023-03-29T15:48:59;9.50;99.90
46730;DHT22;32476;50.002;11.854;2023-03-29T15:51:25;9.50;99.90
46730;DHT22;32476;50.002;11.854;2023-03-29T15:53:51;9.70;99.90
46730;DHT22;32476;50.002;11.854;2023-03-29T15:56:19;9.80;99.90
46730;DHT22;32476;50.002;11.854;2023-03-29T15:58:45;9.70;99.90
46730;DHT22;32476;50.002;11.854;2023-03-29T16:01:24;9.60;99.90
46730;DHT22;32476;50.002;11.854;2023-03-29T16:04:15;9.50;99.90
46730;DHT22;32476;50.002;11.854;2023-03-29T16:06:43;9.60;99.90
46730;DHT22;32476;50.002;11.854;2023-03-29T16:09:11;9.60;99.90
46730;DHT22;32476;50.002;11.854;2023-03-29T16:11:39;9.60;99.90
46730;DHT22;32476;50.002;11.854;2023-03-29T16:14:12;9.50;99.90
46730;DHT22;32476;50.002;11.854;2023-03-29T16:16:42;9.50;99.90
46730;DHT22;32476;50.002;11.854;2023-03-29T16:19:08;9.40;99.90
46730;DHT22;32476;50.002;11.854;2023-03-29T16:21:33;9.50;99.90
46730;DHT22;32476;50.002;11.854;2023-03-29T16:24:01;9.50;99.90
46730;DHT22;32476;50.002;11.854;2023-03-29T16:26:28;9.40;99.90
46730;DHT22;32476;50.002;11.854;2023-03-29T16:28:55;9.50;99.90
46730;DHT22;32476;50.002;11.854;2023-03-29T16:31:22;9.50;99.90
46730;DHT22;32476;50.002;11.854;2023-03-29T16:33:51;9.40;99.90
46730;DHT22;32476;50.002;11.854;2023-03-29T16:36:17;9.40;99.90
46730;DHT22;32476;50.002;11.854;2023-03-29T16:38:44;9.30;99.90
46730;DHT22;32476;50.002;11.854;2023-03-29T16:41:14;9.30;99.90
46730;DHT22;32476;50.002;11.854;2023-03-29T16:43:41;9.20;99.90
46730;DHT22;32476;50.002;11.854;2023-03-29T16:46:09;9.10;99.90
46730;DHT22;32476;50.002;11.854;2023-03-29T16:48:36;9.10;99.90
46730;DHT22;32476;50.002;11.854;2023-03-29T16:51:02;9.10;99.90
46730;DHT22;32476;50.002;11.854;2023-03-29T16:53:29;9.00;99.90
46730;DHT22;32476;50.002;11.854;2023-03-29T16:55:56;9.00;99.90
46730;DHT22;32476;50.002;11.854;2023-03-29T16:58:22;8.90;99.90
46730;DHT22;32476;50.002;11.854;2023-03-29T17:00:50;8.90;99.90
46730;DHT22;32476;50.002;11.854;2023-03-29T17:03:20;8.90;99.90
46730;DHT22;32476;50.002;11.854;2023-03-29T17:05:47;8.80;99.90
46730;DHT22;32476;50.002;11.854;2023-03-29T17:08:15;8.80;99.90
46730;DHT22;32476;50.002;11.854;2023-03-29T17:10:42;8.80;99.90